Tropical Cyclones
[Index]
Main Index Home Page Stock Weather Photos Extreme Storms Discussion Storm News and Storm Chasing Reports Tropical Cyclones / Hurricanes / Typhoons Weather Data and Links Wild Fires / Bushfires Weather Observation Techniques Weather Picture Catalogue Tornado Pictures and Reports Stock Video Footage and DVDs for sale
Season 1988-1989 Tropical Cyclone ILONA Track Map
Season 1988-1989 Summaries: [BoM-AU] [JTWC-AU] [JTWC-SIO] [JTWC-SPAC] [JTWC-SH]
<<- Previous TC | BoM 1988-1989 Season | Next TC ->>

click for intensity scale information  Lat/long Grid: Show Hide

 Date Labels: Show Hide

Bureau of Meteorology Tropical Cyclone Data

Name: ILONA
Number: 707 / 198889_01

12 Dec 1988 00:00 UTC to 19 Dec 1988 16:00 UTC

    date/time    lat    long    hPa   cat  kts
1988-12-12 00   12.0   128.3   1000         25          
1988-12-12 03   12.6   127.6   1000         25          
1988-12-12 06   13.2   126.8    998         29          
1988-12-12 09   13.8   126.3    998         29          
1988-12-12 12   14.5   125.7    997         31          
1988-12-12 15   15.0   124.7    997         31          
1988-12-12 18   15.3   124.1    997         31          
1988-12-13 00   15.9   122.8    996         33          
1988-12-13 06   16.3   121.6    995    1    35          
1988-12-13 12   16.7   120.6    994    1    35          
1988-12-13 18   16.7   119.7    993    1    37          
1988-12-14 00   16.5   118.5    992    1    39          
1988-12-14 06   16.3   117.3    991    1    41          
1988-12-14 12   16.2   116.6    988    1    43          
1988-12-14 18   16.1   116.2    984    2    49          
1988-12-15 00   16.1   115.8    980    2    52          
1988-12-15 03   16.0   115.6    977    2    56          
1988-12-15 06   16.2   115.5    974    2    58          
1988-12-15 09   16.2   115.4    972    2    62          
1988-12-15 12   16.3   115.3    970    3    64          
1988-12-15 15   16.4   115.3    970    3    64          
1988-12-15 18   16.5   115.2    969    3    64          
1988-12-16 00   16.8   115.2    967    3    66          
1988-12-16 06   17.0   115.2    965    3    68          
1988-12-16 12   17.4   115.3    964    3    70          
1988-12-16 18   17.8   115.3    962    3    70          
1988-12-17 00   18.3   115.4    960    3    72          
1988-12-17 06   19.2   115.7    960    3    72          
1988-12-17 12   20.2   116.0    960    3    72          
1988-12-17 15   20.9   116.0    960    3    72          
1988-12-17 18   21.6   116.2    965    3    68          
1988-12-17 21   22.3   116.4    970    3    64          
1988-12-18 00   23.2   116.8    975    2    58          
1988-12-18 06   24.7   117.7    985    2    47          
1988-12-18 12   25.9   119.1    995    1    35          
1988-12-18 18   26.4   120.3    996         33          
1988-12-19 00   26.4   121.8    998         29          
1988-12-19 06   26.6   123.7    998         29          
1988-12-19 12   26.7   125.7    999         27          
1988-12-19 16   26.7   127.0   1000         25          
Winds are 10-min average.

Tropical cyclone tracks developed by Michael Bath using data from the Bureau of Meteorology and Google Maps.


[Australian Severe Weather index] [Copyright Notice] [Email Contacts] [Search This Site] [Privacy Policy]
Document: tropical_cyclone_ilona.htm Updated: 30 May 2013